createdAt,value
2022-09-07T00:00:25.244Z,95862.03
2022-09-07T00:02:54.089Z,95859.14
2022-09-07T00:05:25.986Z,95857.80
2022-09-07T00:07:55.251Z,95859.72
2022-09-07T00:10:26.402Z,95857.25
2022-09-07T00:12:56.530Z,95857.03
2022-09-07T00:15:29.286Z,95856.67
2022-09-07T00:17:59.731Z,95860.11
2022-09-07T00:20:32.779Z,95856.25
2022-09-07T00:23:01.419Z,95856.45
2022-09-07T00:25:32.050Z,95858.00
2022-09-07T00:28:01.485Z,95859.72
2022-09-07T00:30:29.999Z,95856.66
2022-09-07T00:32:58.771Z,95849.73
2022-09-07T00:35:29.406Z,95853.00
2022-09-07T00:37:58.104Z,95853.95
2022-09-07T00:40:26.813Z,95849.93
2022-09-07T00:42:55.431Z,95856.44
2022-09-07T00:45:27.213Z,95857.80
2022-09-07T00:48:07.830Z,95858.19
2022-09-07T00:50:42.727Z,95864.91
2022-09-07T00:53:23.569Z,95856.06
2022-09-07T00:55:55.218Z,95863.37
2022-09-07T00:58:26.197Z,95858.93
2022-09-07T01:00:56.642Z,95855.50
2022-09-07T01:03:32.397Z,95853.96
2022-09-07T01:06:09.968Z,95856.42
2022-09-07T01:08:40.914Z,95852.58
2022-09-07T01:11:10.689Z,95848.75
2022-09-07T01:13:41.455Z,95846.45
2022-09-07T01:16:30.536Z,95846.23
2022-09-07T01:19:23.341Z,95846.61
2022-09-07T01:22:31.124Z,95843.12
2022-09-07T01:25:02.785Z,95838.52
2022-09-07T01:27:49.280Z,95843.50
2022-09-07T01:30:20.731Z,95837.55
2022-09-07T01:33:26.991Z,95836.78
2022-09-07T01:36:17.318Z,95835.63
2022-09-07T01:38:54.544Z,95836.79
2022-09-07T01:41:49.028Z,95830.27
2022-09-07T01:44:24.792Z,95835.23
2022-09-07T01:47:05.686Z,95836.55
2022-09-07T01:49:46.406Z,95840.00
2022-09-07T01:52:27.092Z,95838.28
2022-09-07T01:55:13.917Z,95836.14
2022-09-07T01:57:50.397Z,95837.10
2022-09-07T02:00:23.359Z,95839.20
2022-09-07T02:03:04.399Z,95834.25
2022-09-07T02:05:39.282Z,95828.85
2022-09-07T02:08:15.767Z,95834.61
2022-09-07T02:11:03.773Z,95829.98
2022-09-07T02:13:40.812Z,95828.64
2022-09-07T02:20:01.516Z,95824.80
2022-09-07T02:22:38.499Z,95826.83
2022-09-07T02:28:39.557Z,95824.87
2022-09-07T02:31:10.370Z,95825.88
2022-09-07T02:33:39.462Z,95826.06
2022-09-07T02:36:14.372Z,95824.47
2022-09-07T02:38:48.049Z,95818.55
2022-09-07T02:41:42.574Z,95819.48
2022-09-07T02:44:20.435Z,95816.99
2022-09-07T02:47:11.676Z,95815.27
2022-09-07T02:49:58.075Z,95817.15
2022-09-07T02:53:07.882Z,95826.16
2022-09-07T02:56:12.603Z,95825.39
2022-09-07T02:58:59.517Z,95835.12
2022-09-07T03:01:40.267Z,95832.41
2022-09-07T03:04:32.302Z,95831.83
2022-09-07T03:07:34.520Z,95833.36
2022-09-07T03:10:07.898Z,95831.21
2022-09-07T03:12:45.591Z,95833.89
2022-09-07T03:15:20.728Z,95830.41
2022-09-07T03:17:49.783Z,95828.68
2022-09-07T03:20:24.264Z,95827.11
2022-09-07T03:22:54.725Z,95829.80
2022-09-07T03:25:23.736Z,95829.59
2022-09-07T03:27:52.978Z,95828.06
2022-09-07T03:30:23.655Z,95827.53
2022-09-07T03:32:53.048Z,95828.03
2022-09-07T03:35:23.605Z,95836.44
2022-09-07T03:37:52.765Z,95837.25
2022-09-07T03:40:21.607Z,95843.39
2022-09-07T03:42:52.578Z,95838.75
2022-09-07T03:45:26.008Z,95843.86
2022-09-07T03:47:58.342Z,95847.89
2022-09-07T03:50:27.103Z,95838.08
2022-09-07T03:52:59.645Z,95845.72
2022-09-07T03:55:38.986Z,95846.30
2022-09-07T03:58:07.928Z,95852.19
2022-09-07T04:00:41.638Z,95856.02
2022-09-07T04:03:13.472Z,95848.98
2022-09-07T04:05:48.620Z,95854.33
2022-09-07T04:08:18.632Z,95852.44
2022-09-07T04:10:48.729Z,95853.20
2022-09-07T04:13:20.401Z,95853.38
2022-09-07T04:15:53.357Z,95860.09
2022-09-07T04:18:23.467Z,95854.16
2022-09-07T04:20:56.152Z,95861.24
2022-09-07T04:23:27.527Z,95865.13
2022-09-07T04:25:58.151Z,95864.94
2022-09-07T04:28:28.740Z,95858.70
2022-09-07T04:31:08.507Z,95865.07
2022-09-07T04:33:38.028Z,95864.59
2022-09-07T04:36:07.554Z,95864.06
2022-09-07T04:38:36.571Z,95857.20
2022-09-07T04:41:10.961Z,95861.58
2022-09-07T04:43:47.855Z,95861.98
2022-09-07T04:46:38.795Z,95867.52
2022-09-07T04:49:10.890Z,95866.21
2022-09-07T04:51:47.276Z,95866.82
2022-09-07T04:57:20.999Z,95873.22
2022-09-07T04:59:50.491Z,95870.44
2022-09-07T05:02:31.434Z,95869.86
2022-09-07T05:05:02.904Z,95874.66
2022-09-07T05:07:31.979Z,95877.95
2022-09-07T05:10:03.705Z,95877.98
2022-09-07T05:12:33.593Z,95883.78
2022-09-07T05:15:08.872Z,95883.81
2022-09-07T05:17:37.244Z,95886.88
2022-09-07T05:20:09.346Z,95886.70
2022-09-07T05:22:39.892Z,95806.61
2022-09-07T05:25:31.818Z,95884.45
2022-09-07T05:27:59.585Z,95888.51
2022-09-07T05:36:41.769Z,95881.03
2022-09-07T05:39:32.720Z,95880.67
2022-09-07T05:42:05.960Z,95885.66
2022-09-07T05:44:45.114Z,95878.56
2022-09-07T05:47:09.465Z,95882.22
2022-09-07T05:49:38.440Z,95878.98
2022-09-07T05:52:11.927Z,95876.87
2022-09-07T05:54:49.940Z,95878.78
2022-09-07T05:57:23.533Z,95873.22
2022-09-07T05:59:57.441Z,95874.55
2022-09-07T06:02:39.690Z,95873.96
2022-09-07T06:05:07.255Z,95877.03
2022-09-07T06:07:41.191Z,95886.06
2022-09-07T06:12:49.218Z,95879.69
2022-09-07T06:15:18.080Z,95876.80
2022-09-07T06:18:05.013Z,95806.12
2022-09-07T06:20:35.401Z,95879.42
2022-09-07T06:23:08.892Z,95876.91
2022-09-07T06:25:39.447Z,95878.42
2022-09-07T06:28:08.456Z,95880.25
2022-09-07T06:30:37.363Z,95880.94
2022-09-07T06:33:10.561Z,95886.52
2022-09-07T06:36:01.346Z,95888.35
2022-09-07T06:44:17.261Z,95890.91
2022-09-07T06:47:03.287Z,95889.79
2022-09-07T06:49:27.137Z,95893.06
2022-09-07T06:51:56.331Z,95891.24
2022-09-07T06:57:00.672Z,95896.72
2022-09-07T06:59:29.541Z,95902.17
2022-09-07T07:02:02.544Z,95898.16
2022-09-07T07:07:31.308Z,95904.51
2022-09-07T07:10:08.472Z,95901.91
2022-09-07T07:15:40.655Z,95904.31
2022-09-07T07:18:21.569Z,95907.21
2022-09-07T07:20:52.179Z,95903.77
2022-09-07T07:23:21.045Z,95899.29
2022-09-07T07:25:49.673Z,95896.14
2022-09-07T07:30:48.940Z,95893.80
2022-09-07T07:33:17.672Z,95895.16
2022-09-07T07:35:49.513Z,95899.07
2022-09-07T07:43:29.512Z,95901.66
2022-09-07T07:46:01.224Z,95901.34
2022-09-07T07:48:31.831Z,95898.17
2022-09-07T07:51:16.182Z,95898.09
2022-09-07T07:53:47.864Z,95880.23
2022-09-07T07:56:17.534Z,95896.16
2022-09-07T07:58:48.433Z,95894.73
2022-09-07T08:01:29.777Z,95902.27
2022-09-07T08:04:04.630Z,95905.56
2022-09-07T08:06:35.262Z,95895.25
2022-09-07T08:09:08.766Z,95903.30
2022-09-07T08:11:43.010Z,95897.80
2022-09-07T08:17:16.067Z,95887.20
2022-09-07T08:20:09.423Z,95893.87
2022-09-07T08:22:45.332Z,95897.16
2022-09-07T08:25:21.732Z,95896.19
2022-09-07T08:27:58.062Z,95886.73
2022-09-07T08:33:52.040Z,95888.85
2022-09-07T08:36:32.431Z,95882.07
2022-09-07T08:39:03.158Z,95882.81
2022-09-07T09:00:50.257Z,95864.72
2022-09-07T09:10:33.786Z,95857.57
2022-09-07T09:13:38.683Z,95849.11
2022-09-07T09:16:32.116Z,95844.16
2022-09-07T09:19:16.070Z,95844.18
2022-09-07T09:22:26.295Z,95836.36
2022-09-07T09:24:58.033Z,95833.16
2022-09-07T09:27:26.883Z,95833.37
2022-09-07T09:33:19.550Z,95825.25
2022-09-07T10:20:49.854Z,95782.15
2022-09-07T10:22:42.272Z,95776.36
2022-09-07T10:31:37.284Z,95777.13
2022-09-07T10:34:37.313Z,95770.95
2022-09-07T10:37:13.271Z,95767.48
2022-09-07T10:40:00.248Z,95757.80
2022-09-07T10:43:20.468Z,95753.11
2022-09-07T10:45:22.509Z,95747.22
2022-09-07T10:48:09.167Z,95750.34
2022-09-07T10:50:43.613Z,95750.19
2022-09-07T10:53:39.511Z,95746.56
2022-09-07T10:55:49.208Z,95744.40
2022-09-07T11:01:32.902Z,95736.92
2022-09-07T11:04:22.481Z,95740.10
2022-09-07T11:06:56.842Z,95734.20
2022-09-07T11:10:00.565Z,95726.25
2022-09-07T11:12:32.411Z,95722.92
2022-09-07T11:15:24.146Z,95721.06
2022-09-07T11:18:20.400Z,95718.72
2022-09-07T11:21:02.846Z,95718.22
2022-09-07T11:26:54.400Z,95715.83
2022-09-07T11:29:52.379Z,95718.55
2022-09-07T11:32:33.658Z,95711.23
2022-09-07T11:35:08.445Z,95710.34
2022-09-07T11:38:03.067Z,95709.78
2022-09-07T11:50:59.623Z,95701.73
2022-09-07T12:00:26.401Z,95691.85
2022-09-07T12:07:06.239Z,95684.09
2022-09-07T12:09:56.715Z,95657.20
2022-09-07T12:12:49.420Z,95676.09
2022-09-07T12:52:26.134Z,95646.94
2022-09-07T12:55:26.612Z,95641.94
2022-09-07T12:57:58.574Z,95641.18
2022-09-07T13:01:05.535Z,95635.11
2022-09-07T13:04:00.443Z,95630.26
2022-09-07T13:07:07.856Z,95626.63
2022-09-07T13:09:41.946Z,95617.23
2022-09-07T13:12:57.365Z,95619.34
2022-09-07T13:21:38.268Z,95550.66
2022-09-07T13:22:16.563Z,95622.04
2022-09-07T13:24:46.072Z,95620.98
2022-09-07T13:30:49.439Z,95622.65
2022-09-07T13:33:34.162Z,95620.55
2022-09-07T13:36:07.313Z,95619.49
2022-09-07T13:38:39.503Z,95619.78
2022-09-07T13:41:20.100Z,95609.17
2022-09-07T13:43:51.009Z,95621.31
2022-09-07T13:46:42.725Z,95627.09
2022-09-07T13:49:24.502Z,95617.82
2022-09-07T13:52:07.877Z,95616.32
2022-09-07T13:54:55.140Z,95611.14
2022-09-07T13:57:29.300Z,95608.11
2022-09-07T13:59:58.601Z,95610.55
2022-09-07T14:02:30.948Z,95610.08
2022-09-07T14:05:00.979Z,95609.33
2022-09-07T14:07:31.986Z,95607.05
2022-09-07T14:10:09.655Z,95600.52
2022-09-07T14:12:53.086Z,95600.52
2022-09-07T14:15:36.490Z,95601.29
2022-09-07T14:18:08.683Z,95597.64
2022-09-07T14:20:42.964Z,95597.34
2022-09-07T14:23:32.757Z,95595.20
2022-09-07T14:26:18.501Z,95595.53
2022-09-07T14:28:44.177Z,95599.31
2022-09-07T14:31:18.813Z,95600.52
2022-09-07T14:33:59.141Z,95599.42
2022-09-07T14:36:44.879Z,95606.59
2022-09-07T14:39:09.148Z,95600.22
2022-09-07T14:41:43.497Z,95602.20
2022-09-07T14:44:30.570Z,95593.86
2022-09-07T14:47:04.417Z,95593.69
2022-09-07T14:49:36.330Z,95589.16
2022-09-07T14:52:05.953Z,95588.08
2022-09-07T14:54:36.891Z,95590.37
2022-09-07T14:57:15.611Z,95589.31
2022-09-07T14:59:50.346Z,95583.18
2022-09-07T15:02:44.637Z,95572.53
2022-09-07T15:05:23.609Z,95584.10
2022-09-07T15:08:03.029Z,95586.28
2022-09-07T15:10:41.263Z,95581.31
2022-09-07T15:13:30.290Z,95575.30
2022-09-07T15:16:08.560Z,95585.02
2022-09-07T15:19:26.988Z,95589.50
2022-09-07T15:21:56.691Z,95587.91
2022-09-07T15:24:25.708Z,95593.11
2022-09-07T15:27:02.326Z,95586.63
2022-09-07T15:29:32.147Z,95579.81
2022-09-07T15:32:08.944Z,95589.80
2022-09-07T15:34:40.500Z,95587.83
2022-09-07T15:39:43.670Z,95593.89
2022-09-07T15:44:52.308Z,95598.98
2022-09-07T15:49:53.958Z,95598.58
2022-09-07T15:52:22.510Z,95608.20
2022-09-07T15:54:52.687Z,95605.54
2022-09-07T15:59:51.897Z,95603.42
2022-09-07T16:04:52.127Z,95607.05
2022-09-07T16:07:22.146Z,95592.41
2022-09-07T16:09:53.155Z,95609.57
2022-09-07T16:14:56.341Z,95619.13
2022-09-07T16:17:27.183Z,95615.25
2022-09-07T16:25:14.394Z,95612.23
2022-09-07T16:27:46.745Z,95611.08
2022-09-07T16:30:15.394Z,95609.70
2022-09-07T16:32:53.455Z,95606.11
2022-09-07T16:35:38.905Z,95613.41
2022-09-07T16:40:45.256Z,95603.39
2022-09-07T16:43:30.977Z,95609.80
2022-09-07T16:46:07.820Z,95605.18
2022-09-07T16:48:24.199Z,95603.45
2022-09-07T16:51:03.591Z,95604.05
2022-09-07T16:53:47.976Z,95603.22
2022-09-07T16:56:13.861Z,95602.36
2022-09-07T16:58:45.546Z,95607.59
2022-09-07T17:01:17.356Z,95608.05
2022-09-07T17:03:49.734Z,95615.31
2022-09-07T17:06:21.951Z,95613.45
2022-09-07T17:08:50.675Z,95622.83
2022-09-07T17:11:22.492Z,95626.82
2022-09-07T17:20:30.869Z,95639.56
2022-09-07T17:23:02.605Z,95640.09
2022-09-07T17:25:33.259Z,95641.09
2022-09-07T17:28:02.032Z,95639.39
2022-09-07T17:30:30.554Z,95640.58
2022-09-07T17:32:59.162Z,95630.78
2022-09-07T17:35:44.555Z,95631.78
2022-09-07T17:40:43.750Z,95641.19
2022-09-07T17:45:57.302Z,95642.48
2022-09-07T17:48:26.522Z,95645.20
2022-09-07T17:51:10.659Z,95651.45
2022-09-07T17:53:45.253Z,95657.22
2022-09-07T17:56:15.841Z,95661.78
2022-09-07T17:58:46.003Z,95664.84
2022-09-07T18:04:08.684Z,95673.27
2022-09-07T18:06:37.856Z,95680.24
2022-09-07T18:09:10.732Z,95681.06
2022-09-07T18:11:46.726Z,95686.45
2022-09-07T18:14:17.878Z,95684.59
2022-09-07T18:16:49.416Z,95681.84
2022-09-07T18:19:20.874Z,95686.48
2022-09-07T18:21:54.990Z,95682.14
2022-09-07T18:24:28.836Z,95691.31
2022-09-07T18:27:10.942Z,95697.23
2022-09-07T18:29:40.322Z,95690.36
2022-09-07T18:32:13.483Z,95691.51
2022-09-07T18:34:41.482Z,95694.86
2022-09-07T18:37:12.558Z,95699.69
2022-09-07T18:40:09.615Z,95703.41
2022-09-07T18:42:43.955Z,95703.00
2022-09-07T18:45:34.328Z,95704.77
2022-09-07T18:47:54.986Z,95704.26
2022-09-07T18:50:24.939Z,95704.91
2022-09-07T18:52:53.910Z,95703.40
2022-09-07T18:55:24.290Z,95699.42
2022-09-07T18:57:55.935Z,95698.06
2022-09-07T19:00:25.606Z,95696.77
2022-09-07T19:02:54.343Z,95698.83
2022-09-07T19:07:53.810Z,95693.49
2022-09-07T19:10:23.387Z,95700.97
2022-09-07T19:12:52.399Z,95699.20
2022-09-07T19:15:24.260Z,95700.49
2022-09-07T19:17:54.730Z,95699.60
2022-09-07T19:20:25.207Z,95699.30
2022-09-07T19:22:53.946Z,95697.47
2022-09-07T19:25:23.370Z,95687.19
2022-09-07T19:27:52.145Z,95693.22
2022-09-07T19:30:24.211Z,95691.17
2022-09-07T19:32:54.054Z,95698.56
2022-09-07T19:35:22.850Z,95691.87
2022-09-07T19:37:57.840Z,95677.19
2022-09-07T19:40:26.987Z,95700.57
2022-09-07T19:42:58.008Z,95698.80
2022-09-07T19:45:28.355Z,95701.09
2022-09-07T19:48:07.123Z,95697.90
2022-09-07T19:50:41.752Z,95701.39
2022-09-07T19:53:10.853Z,95698.52
2022-09-07T19:55:41.555Z,95704.25
2022-09-07T19:58:12.184Z,95699.86
2022-09-07T20:00:41.969Z,95708.89
2022-09-07T20:03:13.657Z,95709.52
2022-09-07T20:05:43.711Z,95700.53
2022-09-07T20:08:15.243Z,95699.19
2022-09-07T20:10:45.433Z,95703.03
2022-09-07T20:13:14.392Z,95699.19
2022-09-07T20:15:55.006Z,95697.28
2022-09-07T20:21:49.397Z,95700.66
2022-09-07T20:27:58.231Z,95701.51
2022-09-07T20:34:51.253Z,95698.31
2022-09-07T20:52:44.552Z,95709.22
2022-09-07T20:55:16.421Z,95716.60
2022-09-07T20:57:46.830Z,95721.27
2022-09-07T21:00:16.010Z,95719.81
2022-09-07T21:02:44.979Z,95726.33
2022-09-07T21:05:33.014Z,95730.00
2022-09-07T21:08:00.989Z,95732.70
2022-09-07T21:13:25.950Z,95746.83
2022-09-07T21:16:03.114Z,95739.98
2022-09-07T21:18:58.267Z,95746.66
2022-09-07T21:21:37.817Z,95719.19
2022-09-07T21:24:07.926Z,95733.70
2022-09-07T21:26:41.534Z,95727.01
2022-09-07T21:29:19.377Z,95735.53
2022-09-07T21:31:59.057Z,95732.83
2022-09-07T21:38:13.806Z,95740.90
2022-09-07T21:40:43.958Z,95740.90
2022-09-07T21:43:14.288Z,95742.03
2022-09-07T21:46:08.208Z,95747.06
2022-09-07T21:48:38.939Z,95740.16
2022-09-07T21:51:09.432Z,95741.50
2022-09-07T21:53:42.003Z,95736.11
2022-09-07T21:56:18.181Z,95730.70
2022-09-07T21:58:50.853Z,95730.30
2022-09-07T22:01:24.233Z,95735.11
2022-09-07T22:03:59.426Z,95731.11
2022-09-07T22:06:48.951Z,95731.13
2022-09-07T22:09:22.086Z,95739.61
2022-09-07T22:11:58.312Z,95738.45
2022-09-07T22:14:38.322Z,95727.72
2022-09-07T22:17:19.314Z,95725.65
2022-09-07T22:19:51.610Z,95727.05
2022-09-07T22:22:27.092Z,95732.28
2022-09-07T22:28:06.742Z,95733.55
2022-09-07T22:30:48.607Z,95732.97
2022-09-07T22:33:25.513Z,95725.86
2022-09-07T22:36:02.424Z,95725.66
2022-09-07T22:38:41.893Z,95714.98
2022-09-07T22:41:18.910Z,95708.87
2022-09-07T22:47:11.696Z,95712.32
2022-09-07T22:49:59.693Z,95705.78
2022-09-07T22:55:26.701Z,95714.30
2022-09-07T22:58:05.760Z,95719.34
2022-09-07T23:00:39.794Z,95721.31
2022-09-07T23:06:24.202Z,95719.59
2022-09-07T23:09:27.443Z,95715.16
2022-09-07T23:11:56.285Z,95715.38
2022-09-07T23:14:25.297Z,95715.19
2022-09-07T23:16:58.605Z,95714.25
2022-09-07T23:19:27.765Z,95714.85
2022-09-07T23:21:56.582Z,95719.10
2022-09-07T23:24:26.903Z,95717.76
2022-09-07T23:27:05.091Z,95713.93
2022-09-07T23:29:37.627Z,95716.04
2022-09-07T23:32:11.041Z,95709.55
2022-09-07T23:34:40.070Z,95710.52
2022-09-07T23:37:08.885Z,95710.32
2022-09-07T23:39:37.822Z,95717.24
2022-09-07T23:42:08.776Z,95714.56
2022-09-07T23:44:40.269Z,95707.66
2022-09-07T23:47:09.331Z,95707.05
2022-09-07T23:49:42.234Z,95703.05
2022-09-07T23:52:10.886Z,95697.30
2022-09-07T23:54:39.941Z,95702.84
2022-09-07T23:57:09.726Z,95699.23
2022-09-07T23:59:38.404Z,95695.39
